Time;durP1;ratioP1;P1;durP2;ratioP2;P2;SDS_P1;SDS_P2;PMS_P1;PMS_P2;Temp;Humidity;BMP_temperature;BMP_pressure;BME280_temperature;BME280_humidity;BME280_pressure;Samples;Min_cycle;Max_cycle;Signal;HPM_P1;HPM_P2
2021/05/02 00:01:16;;;;;;;30.00;22.27;;;17.50;99.90;;;;;;4989101;28;20034;-80
2021/05/02 00:03:43;;;;;;;31.45;22.73;;;17.30;99.90;;;;;;4988767;28;20087;-77
2021/05/02 00:06:12;;;;;;;35.78;25.08;;;17.40;99.90;;;;;;4988615;28;20392;-78
2021/05/02 00:08:39;;;;;;;35.92;24.13;;;17.30;99.90;;;;;;4990493;28;20061;-79
2021/05/02 00:11:09;;;;;;;32.28;24.30;;;17.30;99.90;;;;;;4983464;28;20412;-72
2021/05/02 00:13:37;;;;;;;32.40;24.05;;;17.40;99.90;;;;;;4992334;28;20035;-73
2021/05/02 00:16:06;;;;;;;34.60;23.23;;;17.40;99.90;;;;;;4987314;28;20538;-72
2021/05/02 00:18:35;;;;;;;39.83;25.15;;;17.40;99.90;;;;;;4989309;28;20026;-72
2021/05/02 00:21:07;;;;;;;34.08;24.23;;;17.30;99.90;;;;;;4988206;28;20025;-73
2021/05/02 00:23:36;;;;;;;31.45;22.98;;;17.40;99.90;;;;;;4986296;28;20025;-73
2021/05/02 00:26:05;;;;;;;27.05;19.35;;;17.40;99.90;;;;;;4988606;28;20090;-74
2021/05/02 00:28:34;;;;;;;31.77;21.15;;;17.50;99.90;;;;;;4989169;28;20480;-71
2021/05/02 00:31:06;;;;;;;32.75;25.20;;;17.70;99.90;;;;;;4985895;28;20039;-72
2021/05/02 00:33:37;;;;;;;35.42;25.65;;;17.70;99.80;;;;;;4988786;28;20045;-72
2021/05/02 00:36:06;;;;;;;40.22;27.40;;;17.70;99.70;;;;;;4991686;28;20106;-74
2021/05/02 00:38:38;;;;;;;40.13;26.92;;;17.50;99.90;;;;;;4991494;28;20392;-73
2021/05/02 00:41:12;;;;;;;41.78;29.55;;;17.40;99.90;;;;;;4990706;28;20022;-70
2021/05/02 00:43:44;;;;;;;43.22;28.25;;;17.30;99.90;;;;;;4991259;28;20039;-71
2021/05/02 00:46:16;;;;;;;32.25;24.02;;;17.30;99.90;;;;;;4989084;28;20032;-72
2021/05/02 00:49:14;;;;;;;36.53;23.65;;;17.50;99.90;;;;;;4991611;28;20046;-71
2021/05/02 00:51:46;;;;;;;34.60;25.33;;;17.60;99.90;;;;;;4986503;28;20030;-72
2021/05/02 00:54:35;;;;;;;35.20;23.83;;;17.90;99.70;;;;;;4984921;28;20027;-71
2021/05/02 00:57:11;;;;;;;34.25;24.17;;;18.10;99.40;;;;;;4991672;28;20069;-72
2021/05/02 00:59:43;;;;;;;33.22;23.83;;;18.20;99.30;;;;;;4991959;28;20041;-71
2021/05/02 01:02:14;;;;;;;37.42;26.15;;;18.40;98.70;;;;;;4991455;28;20058;-73
2021/05/02 01:04:45;;;;;;;25.33;22.25;;;18.40;98.60;;;;;;4988635;28;20057;-72
2021/05/02 01:07:28;;;;;;;38.75;26.92;;;18.40;98.90;;;;;;4989931;28;20084;-72
2021/05/02 01:10:03;;;;;;;34.50;25.83;;;18.60;98.30;;;;;;4985554;28;20038;-73
2021/05/02 01:12:31;;;;;;;21.67;18.08;;;18.90;98.20;;;;;;4989059;28;20033;-73
2021/05/02 01:15:02;;;;;;;31.35;22.70;;;19.40;96.70;;;;;;4991006;28;20049;-71
2021/05/02 01:17:31;;;;;;;23.63;19.92;;;20.40;96.20;;;;;;4983968;28;20033;-74
2021/05/02 01:19:58;;;;;;;24.60;18.75;;;21.10;93.70;;;;;;4981918;28;20476;-75
2021/05/02 01:22:31;;;;;;;25.30;19.17;;;21.60;92.40;;;;;;4987239;28;20034;-72
2021/05/02 01:25:00;;;;;;;24.33;18.88;;;21.80;92.50;;;;;;4987276;28;20033;-70
2021/05/02 01:27:33;;;;;;;24.23;19.80;;;22.10;91.90;;;;;;4994312;28;20105;-71
2021/05/02 01:30:03;;;;;;;19.92;14.88;;;22.70;92.00;;;;;;4990902;28;20112;-73
2021/05/02 01:32:31;;;;;;;22.30;19.50;;;23.10;89.90;;;;;;4998642;28;20034;-74
2021/05/02 01:35:02;;;;;;;22.63;18.83;;;23.20;89.10;;;;;;4990407;28;20091;-73
2021/05/02 01:37:31;;;;;;;18.77;16.17;;;22.90;90.30;;;;;;5007593;28;20026;-72
2021/05/02 01:39:59;;;;;;;20.38;17.27;;;22.70;90.00;;;;;;4991741;28;20108;-73
2021/05/02 01:42:26;;;;;;;19.33;15.98;;;22.80;90.10;;;;;;4993493;28;20026;-73
2021/05/02 01:44:54;;;;;;;21.48;17.98;;;22.70;90.70;;;;;;4988931;28;20057;-73
2021/05/02 01:47:22;;;;;;;21.27;15.77;;;23.10;90.30;;;;;;4993714;28;20057;-74
2021/05/02 01:49:52;;;;;;;19.25;15.05;;;23.30;89.40;;;;;;4994559;28;20389;-74
2021/05/02 01:52:20;;;;;;;19.05;15.60;;;23.50;88.60;;;;;;4993436;28;20038;-74
2021/05/02 01:54:47;;;;;;;16.92;14.90;;;23.30;88.70;;;;;;4991722;28;20037;-73
2021/05/02 01:57:22;;;;;;;17.63;14.23;;;23.50;87.20;;;;;;4994470;28;20173;-73
2021/05/02 01:59:53;;;;;;;18.58;13.20;;;23.80;85.90;;;;;;4990309;28;20034;-73
2021/05/02 02:02:23;;;;;;;16.75;14.82;;;24.30;85.00;;;;;;4996756;28;20507;-73
2021/05/02 02:04:52;;;;;;;15.18;12.48;;;24.60;84.80;;;;;;4994494;28;20049;-75
2021/05/02 02:07:20;;;;;;;14.30;12.43;;;25.00;83.10;;;;;;4994029;28;20481;-75
2021/05/02 02:09:48;;;;;;;9.68;7.40;;;25.70;80.80;;;;;;4994912;28;20128;-75
2021/05/02 02:12:15;;;;;;;8.55;6.55;;;26.00;76.00;;;;;;4994882;28;20038;-74
2021/05/02 02:14:46;;;;;;;7.80;6.85;;;25.40;76.90;;;;;;4995633;28;20602;-75
2021/05/02 02:17:16;;;;;;;10.55;9.52;;;25.00;78.00;;;;;;4991819;28;20143;-73
2021/05/02 02:19:44;;;;;;;11.13;7.80;;;25.10;80.80;;;;;;4991297;28;20485;-73
2021/05/02 02:22:12;;;;;;;13.13;10.60;;;24.40;80.00;;;;;;4993859;28;20032;-73
2021/05/02 02:25:01;;;;;;;10.95;8.35;;;24.10;83.30;;;;;;4992753;28;20026;-73
2021/05/02 02:27:33;;;;;;;10.68;7.78;;;24.10;82.40;;;;;;4991133;28;20404;-74
2021/05/02 02:30:09;;;;;;;10.38;7.32;;;24.50;81.50;;;;;;4992346;28;20117;-73
2021/05/02 02:32:44;;;;;;;9.38;6.80;;;24.70;78.40;;;;;;4991737;28;20037;-75
2021/05/02 02:35:16;;;;;;;8.13;7.43;;;24.80;80.50;;;;;;4991408;28;20033;-74
2021/05/02 02:37:46;;;;;;;8.10;7.30;;;25.80;80.90;;;;;;4994387;28;20164;-75
2021/05/02 02:40:17;;;;;;;6.53;5.85;;;26.70;73.90;;;;;;4992992;28;20025;-73
2021/05/02 02:42:48;;;;;;;7.55;4.43;;;27.20;74.30;;;;;;4990246;28;20025;-74
2021/05/02 02:45:16;;;;;;;5.05;4.55;;;27.20;69.40;;;;;;4993475;28;20045;-73
2021/05/02 02:47:51;;;;;;;6.07;4.28;;;27.40;72.20;;;;;;4989328;28;20477;-72
2021/05/02 02:50:20;;;;;;;4.65;3.38;;;27.70;68.70;;;;;;4990324;28;20133;-73
2021/05/02 02:52:55;;;;;;;5.03;3.55;;;27.50;66.40;;;;;;4990777;28;20113;-73
2021/05/02 02:55:26;;;;;;;6.32;3.95;;;27.30;68.70;;;;;;4984851;28;20053;-74
2021/05/02 02:57:55;;;;;;;7.15;4.13;;;26.70;70.40;;;;;;4993336;28;20033;-72
2021/05/02 03:00:26;;;;;;;5.82;4.05;;;26.60;70.00;;;;;;4994462;28;20483;-71
2021/05/02 03:03:06;;;;;;;5.82;4.65;;;27.00;70.50;;;;;;4992555;28;20072;-73
2021/05/02 03:05:36;;;;;;;6.32;4.13;;;26.40;69.90;;;;;;4987661;28;20029;-73
2021/05/02 03:08:07;;;;;;;5.53;4.40;;;25.60;71.90;;;;;;4992643;28;20038;-75
2021/05/02 03:10:35;;;;;;;6.57;4.28;;;25.80;73.90;;;;;;4994682;28;20095;-72
2021/05/02 03:13:04;;;;;;;5.18;4.32;;;26.10;73.20;;;;;;4987908;28;20045;-74
2021/05/02 03:15:32;;;;;;;5.10;3.35;;;27.00;72.80;;;;;;4990548;28;20022;-74
2021/05/02 03:18:05;;;;;;;9.13;5.07;;;27.70;68.40;;;;;;4990594;28;20562;-73
2021/05/02 03:20:45;;;;;;;3.85;3.30;;;27.50;67.10;;;;;;5000512;28;20436;-72
2021/05/02 03:23:41;;;;;;;6.78;4.43;;;26.60;69.20;;;;;;4988527;28;20024;-71
2021/05/02 03:26:11;;;;;;;5.47;4.05;;;25.80;70.60;;;;;;4991908;28;20034;-73
2021/05/02 03:28:57;;;;;;;4.60;3.83;;;26.00;71.90;;;;;;4988180;28;20389;-71
2021/05/02 03:31:30;;;;;;;6.00;3.88;;;26.00;70.60;;;;;;4984929;28;20611;-73
2021/05/02 03:34:06;;;;;;;7.55;4.15;;;25.60;71.10;;;;;;4993893;28;20034;-73
2021/05/02 03:36:36;;;;;;;4.65;3.35;;;25.40;73.20;;;;;;4988166;28;20358;-72
2021/05/02 03:39:05;;;;;;;4.07;2.60;;;25.40;73.20;;;;;;4991846;28;20106;-73
2021/05/02 03:41:39;;;;;;;5.97;2.78;;;25.20;73.50;;;;;;4991661;28;20029;-74
2021/05/02 03:44:06;;;;;;;4.10;2.58;;;24.80;74.70;;;;;;4987869;28;20145;-76
2021/05/02 03:46:34;;;;;;;9.20;3.40;;;24.60;75.40;;;;;;4989327;28;20060;-72
2021/05/02 03:49:04;;;;;;;4.63;2.92;;;24.10;75.80;;;;;;4986686;28;20034;-72
2021/05/02 03:51:33;;;;;;;4.18;2.75;;;23.80;77.70;;;;;;4990788;28;20038;-73
2021/05/02 03:54:01;;;;;;;5.68;2.72;;;23.50;79.00;;;;;;4988491;28;20177;-72
2021/05/02 03:56:35;;;;;;;4.75;3.60;;;23.30;79.90;;;;;;4989356;28;20377;-72
2021/05/02 03:59:28;;;;;;;5.82;3.20;;;23.30;80.40;;;;;;5005365;28;20034;-73
2021/05/02 04:02:01;;;;;;;3.95;2.80;;;23.10;81.00;;;;;;4990141;28;20070;-71
2021/05/02 04:04:35;;;;;;;7.57;4.28;;;23.20;81.50;;;;;;4985717;28;20488;-72
2021/05/02 04:07:10;;;;;;;3.50;3.00;;;23.40;81.30;;;;;;4987976;28;20377;-73
2021/05/02 04:09:40;;;;;;;6.00;3.92;;;23.80;80.40;;;;;;4988176;28;20029;-73
2021/05/02 04:12:08;;;;;;;6.57;3.83;;;24.20;79.80;;;;;;4986536;28;20065;-73
2021/05/02 04:14:36;;;;;;;5.13;3.53;;;24.50;79.30;;;;;;4984962;28;20093;-71
2021/05/02 04:17:09;;;;;;;4.53;3.40;;;24.70;78.00;;;;;;4990381;28;20030;-72
2021/05/02 04:19:38;;;;;;;5.30;3.40;;;24.90;77.70;;;;;;4991999;28;20049;-73
2021/05/02 04:22:11;;;;;;;7.00;4.53;;;24.70;76.90;;;;;;4993108;28;20099;-73
2021/05/02 04:24:39;;;;;;;4.75;4.00;;;24.70;76.80;;;;;;4988523;28;20054;-73
2021/05/02 04:27:07;;;;;;;6.05;4.15;;;24.20;77.80;;;;;;4992003;28;20630;-74
2021/05/02 04:29:38;;;;;;;5.25;3.85;;;24.10;80.30;;;;;;4993581;28;20049;-73
2021/05/02 04:32:06;;;;;;;4.53;3.38;;;24.20;80.80;;;;;;4987673;28;20038;-74
2021/05/02 04:34:33;;;;;;;4.00;3.58;;;24.20;80.70;;;;;;4985634;28;20018;-75
2021/05/02 04:37:00;;;;;;;3.60;3.28;;;24.20;80.10;;;;;;4993160;28;20041;-73
2021/05/02 04:39:29;;;;;;;4.60;3.95;;;24.20;79.70;;;;;;4990981;28;20026;-74
2021/05/02 04:41:57;;;;;;;4.68;3.70;;;24.20;78.80;;;;;;4990990;28;20044;-72
2021/05/02 04:44:25;;;;;;;4.88;3.70;;;24.30;79.30;;;;;;4988663;28;20105;-73
2021/05/02 04:46:53;;;;;;;7.05;3.13;;;24.30;79.60;;;;;;4987822;28;20370;-72
2021/05/02 04:49:22;;;;;;;5.72;4.00;;;24.30;78.80;;;;;;4985165;28;20053;-75
2021/05/02 04:51:50;;;;;;;4.20;3.70;;;24.10;79.20;;;;;;4991129;28;20089;-74
2021/05/02 04:54:19;;;;;;;6.93;3.85;;;23.80;78.90;;;;;;4989041;28;20061;-71
2021/05/02 04:56:47;;;;;;;5.28;3.60;;;23.60;80.70;;;;;;4986734;28;20492;-72
2021/05/02 04:59:15;;;;;;;4.80;3.28;;;23.50;80.40;;;;;;4984980;28;20028;-71
2021/05/02 05:01:44;;;;;;;6.15;3.25;;;23.50;80.70;;;;;;4993189;28;20524;-74
2021/05/02 05:04:14;;;;;;;3.90;2.70;;;23.60;80.40;;;;;;4999125;28;20023;-74
2021/05/02 05:06:41;;;;;;;3.13;1.98;;;23.60;79.90;;;;;;4991910;28;20034;-74
2021/05/02 05:09:10;;;;;;;5.00;2.80;;;23.60;77.80;;;;;;4994557;28;20049;-72
2021/05/02 05:11:37;;;;;;;6.53;2.70;;;23.60;78.00;;;;;;4988188;28;20047;-72
2021/05/02 05:14:05;;;;;;;2.97;2.08;;;23.50;78.80;;;;;;4988813;28;20030;-74
2021/05/02 05:16:33;;;;;;;2.55;1.92;;;23.40;76.80;;;;;;4990519;28;20061;-73
2021/05/02 05:19:00;;;;;;;3.47;2.30;;;23.40;78.00;;;;;;4992536;28;20105;-72
2021/05/02 05:21:28;;;;;;;4.25;2.00;;;23.50;78.30;;;;;;4983237;28;20033;-72
2021/05/02 05:23:55;;;;;;;5.10;2.15;;;23.30;77.70;;;;;;4985888;28;20047;-73
2021/05/02 05:26:22;;;;;;;5.60;2.60;;;23.40;78.80;;;;;;4994752;28;20019;-71
2021/05/02 05:28:50;;;;;;;2.83;1.70;;;23.30;79.60;;;;;;4984735;28;20637;-73
2021/05/02 05:31:17;;;;;;;3.80;1.98;;;23.20;79.80;;;;;;4993667;28;20447;-72
2021/05/02 05:33:44;;;;;;;3.90;2.03;;;23.20;79.30;;;;;;4980229;28;20113;-73
2021/05/02 05:36:12;;;;;;;3.38;1.67;;;23.10;79.60;;;;;;4977579;28;20030;-73
2021/05/02 05:38:39;;;;;;;4.70;2.28;;;23.00;80.50;;;;;;4981783;28;20582;-73
2021/05/02 05:41:07;;;;;;;2.72;2.35;;;22.90;81.00;;;;;;4976857;28;20041;-71
2021/05/02 05:43:35;;;;;;;5.78;1.88;;;22.80;81.40;;;;;;4989901;28;20355;-74
2021/05/02 05:46:03;;;;;;;4.55;2.75;;;22.80;81.00;;;;;;4981385;28;20033;-73
2021/05/02 05:48:32;;;;;;;3.40;2.22;;;22.80;81.40;;;;;;4995028;28;20050;-71
2021/05/02 05:50:59;;;;;;;4.65;2.40;;;22.80;80.80;;;;;;4982611;28;20031;-72
2021/05/02 05:53:27;;;;;;;4.07;2.55;;;22.90;81.00;;;;;;4995685;28;20034;-75
2021/05/02 05:55:56;;;;;;;6.57;2.53;;;22.80;80.90;;;;;;4989724;28;20084;-72
2021/05/02 05:58:26;;;;;;;3.10;2.00;;;22.80;81.30;;;;;;4989183;28;20037;-73
2021/05/02 06:00:57;;;;;;;4.47;2.22;;;22.80;81.20;;;;;;4985416;28;20049;-73
2021/05/02 06:03:24;;;;;;;3.63;1.73;;;22.90;81.00;;;;;;4990120;28;20032;-71
2021/05/02 06:05:52;;;;;;;3.55;2.15;;;22.90;81.20;;;;;;4988393;28;20799;-71
2021/05/02 06:08:20;;;;;;;2.90;1.73;;;22.90;81.20;;;;;;4988495;28;20137;-73
2021/05/02 06:10:48;;;;;;;4.13;1.75;;;23.00;80.60;;;;;;4989126;28;20041;-74
2021/05/02 06:13:19;;;;;;;3.92;2.00;;;23.00;80.20;;;;;;4988013;28;20069;-72
2021/05/02 06:15:46;;;;;;;7.80;1.42;;;23.10;80.80;;;;;;4989327;28;20117;-70
2021/05/02 06:18:14;;;;;;;6.50;1.58;;;23.00;80.60;;;;;;4987730;28;20029;-72
2021/05/02 06:20:42;;;;;;;3.50;0.77;;;23.10;80.80;;;;;;4990150;28;20105;-70
2021/05/02 06:23:09;;;;;;;4.13;0.70;;;22.90;81.10;;;;;;4988830;28;20030;-72
2021/05/02 06:25:37;;;;;;;2.55;0.50;;;22.80;81.50;;;;;;4987350;28;20037;-72
2021/05/02 06:28:04;;;;;;;2.13;0.40;;;22.70;81.90;;;;;;4989389;28;20041;-73
2021/05/02 06:30:37;;;;;;;3.65;0.80;;;22.60;82.20;;;;;;4983308;28;20097;-72
2021/05/02 06:33:05;;;;;;;1.83;0.32;;;22.40;82.90;;;;;;4985544;28;20061;-71
2021/05/02 06:35:32;;;;;;;1.67;0.50;;;22.40;83.30;;;;;;4982880;28;20109;-72
2021/05/02 06:38:00;;;;;;;1.77;0.45;;;22.30;83.80;;;;;;4978376;28;20056;-72
2021/05/02 06:40:27;;;;;;;2.85;0.60;;;22.20;84.00;;;;;;4985489;28;20017;-72
2021/05/02 06:42:55;;;;;;;1.98;0.50;;;22.10;84.40;;;;;;4985176;28;20112;-73
2021/05/02 06:45:23;;;;;;;2.00;0.60;;;22.10;85.00;;;;;;4988154;28;20038;-72
2021/05/02 06:47:50;;;;;;;2.25;0.55;;;22.00;85.20;;;;;;4985101;28;20080;-75
2021/05/02 06:50:18;;;;;;;3.08;0.60;;;22.00;85.70;;;;;;4975631;28;20046;-73
2021/05/02 06:52:45;;;;;;;5.78;0.60;;;21.90;85.70;;;;;;4976542;28;20030;-74
2021/05/02 06:55:13;;;;;;;6.60;1.35;;;21.90;85.90;;;;;;4988690;28;20452;-73
2021/05/02 06:57:40;;;;;;;3.47;0.70;;;22.00;86.00;;;;;;4984170;28;20141;-71
2021/05/02 07:00:08;;;;;;;2.63;1.23;;;21.90;86.20;;;;;;4998795;28;20420;-73
2021/05/02 07:02:36;;;;;;;6.30;3.28;;;21.90;86.50;;;;;;4978991;28;20034;-71
2021/05/02 07:05:03;;;;;;;4.45;1.00;;;21.70;87.10;;;;;;4975465;28;20031;-72
2021/05/02 07:07:31;;;;;;;4.50;1.00;;;21.70;87.30;;;;;;4987584;28;20062;-72
2021/05/02 07:09:58;;;;;;;3.53;0.80;;;21.60;88.00;;;;;;4989381;28;20034;-71
2021/05/02 07:12:26;;;;;;;3.75;0.95;;;21.50;88.40;;;;;;4992946;28;20129;-70
2021/05/02 07:14:54;;;;;;;3.25;1.00;;;21.40;88.70;;;;;;4990453;28;20054;-73
2021/05/02 07:17:21;;;;;;;4.97;0.98;;;21.40;88.80;;;;;;4988469;28;20026;-72
2021/05/02 07:19:49;;;;;;;3.50;1.00;;;21.40;88.90;;;;;;4982748;28;20118;-71
2021/05/02 07:22:18;;;;;;;4.18;0.80;;;21.40;89.30;;;;;;4991256;28;20053;-74
2021/05/02 07:24:49;;;;;;;4.68;1.10;;;21.40;89.80;;;;;;4989616;28;20105;-71
2021/05/02 07:27:17;;;;;;;2.90;0.70;;;21.40;90.10;;;;;;4972447;28;20038;-71
2021/05/02 07:29:45;;;;;;;2.85;0.90;;;21.30;90.30;;;;;;4985281;28;20133;-72
2021/05/02 07:32:12;;;;;;;6.25;1.13;;;21.20;90.60;;;;;;4986384;28;20034;-72
2021/05/02 07:34:40;;;;;;;3.33;1.10;;;21.10;90.90;;;;;;4987209;28;20694;-72
2021/05/02 07:37:07;;;;;;;7.45;1.30;;;21.00;91.10;;;;;;4994217;28;20030;-71
2021/05/02 07:39:35;;;;;;;4.88;1.00;;;21.00;91.20;;;;;;4985294;28;20041;-73
2021/05/02 07:42:02;;;;;;;4.35;1.10;;;20.90;91.30;;;;;;4977845;28;20524;-71
2021/05/02 07:44:30;;;;;;;5.55;1.30;;;20.90;91.50;;;;;;4982044;28;20033;-73
2021/05/02 07:46:59;;;;;;;5.63;0.63;;;20.90;91.50;;;;;;4985140;28;20037;-71
2021/05/02 07:49:26;;;;;;;3.63;0.85;;;20.80;91.70;;;;;;4990139;28;20085;-73
2021/05/02 07:51:54;;;;;;;4.55;0.95;;;20.80;91.90;;;;;;4972872;28;20551;-72
2021/05/02 07:54:24;;;;;;;5.07;0.70;;;20.80;91.90;;;;;;4973276;28;20054;-72
2021/05/02 07:56:51;;;;;;;7.35;1.40;;;20.80;92.00;;;;;;4987048;28;20106;-72
2021/05/02 07:59:18;;;;;;;5.28;1.05;;;20.80;91.90;;;;;;4980472;28;20025;-71
2021/05/02 08:01:46;;;;;;;3.03;1.42;;;20.80;92.00;;;;;;4984956;28;20397;-72
2021/05/02 08:04:13;;;;;;;2.55;0.60;;;20.70;92.20;;;;;;4994947;28;20100;-71
2021/05/02 08:06:41;;;;;;;3.88;0.80;;;20.70;92.30;;;;;;4987132;28;20087;-72
2021/05/02 08:09:08;;;;;;;3.03;0.60;;;20.60;92.50;;;;;;4989751;28;20346;-72
2021/05/02 08:11:37;;;;;;;4.88;0.80;;;20.50;92.50;;;;;;4991595;28;20407;-73
2021/05/02 08:14:06;;;;;;;2.67;0.70;;;20.50;92.40;;;;;;4986566;28;20136;-79
2021/05/02 08:16:35;;;;;;;3.83;0.60;;;20.40;92.70;;;;;;4988011;28;20048;-78
2021/05/02 08:19:04;;;;;;;4.80;0.82;;;20.30;92.90;;;;;;4995073;28;20026;-80
2021/05/02 08:21:32;;;;;;;5.22;1.30;;;20.20;93.10;;;;;;4991541;28;20026;-80
2021/05/02 08:24:00;;;;;;;8.23;2.13;;;20.20;93.40;;;;;;4996778;28;20097;-80
2021/05/02 08:26:27;;;;;;;8.98;1.38;;;20.10;93.60;;;;;;4988843;28;20022;-81
2021/05/02 08:28:55;;;;;;;6.28;1.15;;;20.00;93.60;;;;;;4988792;28;20026;-77
2021/05/02 08:31:23;;;;;;;6.45;1.42;;;20.00;93.80;;;;;;4986756;28;20034;-76
2021/05/02 08:33:50;;;;;;;5.47;0.75;;;19.90;94.00;;;;;;4996854;28;20023;-81
2021/05/02 08:36:17;;;;;;;3.85;1.00;;;19.80;94.20;;;;;;4992464;28;20107;-80
2021/05/02 08:38:45;;;;;;;2.33;0.95;;;19.70;94.30;;;;;;4996642;28;20097;-80
2021/05/02 08:41:13;;;;;;;7.20;1.00;;;19.70;94.40;;;;;;4992600;28;20033;-80
2021/05/02 08:43:41;;;;;;;3.63;0.80;;;19.60;94.60;;;;;;4994095;28;20062;-82
2021/05/02 08:46:09;;;;;;;1.98;1.00;;;19.60;94.70;;;;;;4990583;28;20109;-80
2021/05/02 08:48:37;;;;;;;2.60;1.25;;;19.60;95.00;;;;;;4994444;28;20377;-79
2021/05/02 08:51:04;;;;;;;9.18;1.67;;;19.60;94.90;;;;;;4991058;28;20074;-78
2021/05/02 08:53:32;;;;;;;4.43;0.95;;;19.50;94.90;;;;;;4994284;28;20022;-80
2021/05/02 08:56:03;;;;;;;5.65;0.70;;;19.40;95.00;;;;;;4998079;28;20027;-80
2021/05/02 08:58:30;;;;;;;3.78;0.75;;;19.30;95.10;;;;;;4994268;28;20036;-81
2021/05/02 09:00:59;;;;;;;3.33;0.70;;;19.30;95.10;;;;;;4991306;28;20026;-80
2021/05/02 09:03:45;;;;;;;3.17;0.60;;;19.10;95.20;;;;;;4995036;28;20481;-81
2021/05/02 09:06:24;;;;;;;3.58;1.17;;;19.10;95.30;;;;;;4990579;28;20129;-81
2021/05/02 09:08:54;;;;;;;2.17;0.80;;;19.00;95.50;;;;;;4992995;28;20449;-77
2021/05/02 09:11:36;;;;;;;2.80;0.52;;;18.90;95.40;;;;;;4991515;28;20034;-78
2021/05/02 09:14:07;;;;;;;4.80;1.00;;;18.90;95.60;;;;;;4992879;28;20037;-79
2021/05/02 09:16:55;;;;;;;2.63;0.65;;;18.80;95.60;;;;;;4991524;28;20026;-79
2021/05/02 09:19:26;;;;;;;5.95;0.85;;;18.70;95.70;;;;;;4995531;28;20077;-80
2021/05/02 09:21:55;;;;;;;6.43;1.23;;;18.70;96.00;;;;;;5008771;28;20030;-82
2021/05/02 09:24:29;;;;;;;3.42;1.30;;;18.70;96.10;;;;;;4991804;28;20076;-81
2021/05/02 09:27:05;;;;;;;6.27;1.50;;;18.70;95.90;;;;;;4991474;28;20073;-81
2021/05/02 09:29:38;;;;;;;2.33;0.98;;;18.60;95.90;;;;;;4990413;28;20034;-80
2021/05/02 09:32:07;;;;;;;1.80;0.80;;;18.50;95.90;;;;;;4987884;28;20049;-82
2021/05/02 09:34:35;;;;;;;1.42;0.70;;;18.50;95.80;;;;;;4993631;28;20038;-82
2021/05/02 09:37:06;;;;;;;2.78;1.08;;;18.40;95.80;;;;;;4991229;28;20034;-83
2021/05/02 09:39:52;;;;;;;4.38;1.08;;;18.30;96.00;;;;;;4990685;28;20038;-84
2021/05/02 09:42:38;;;;;;;4.20;1.02;;;18.20;96.00;;;;;;4991230;28;20034;-83
2021/05/02 09:45:10;;;;;;;2.10;0.90;;;18.20;96.00;;;;;;4994139;28;20027;-78
2021/05/02 09:47:47;;;;;;;2.42;0.80;;;18.10;96.10;;;;;;5006048;28;20471;-81
2021/05/02 09:50:25;;;;;;;5.53;0.90;;;18.10;96.10;;;;;;4995831;28;20045;-81
2021/05/02 09:53:05;;;;;;;4.75;1.08;;;18.10;96.20;;;;;;4982058;28;20045;-80
2021/05/02 09:55:35;;;;;;;5.72;1.75;;;18.00;96.10;;;;;;4985591;28;20073;-81
2021/05/02 09:58:13;;;;;;;4.95;1.23;;;17.90;96.30;;;;;;4990654;28;20437;-80
2021/05/02 10:00:56;;;;;;;3.97;1.30;;;17.90;96.30;;;;;;4990602;28;20025;-88
2021/05/02 10:03:29;;;;;;;4.75;1.73;;;17.90;96.70;;;;;;4994611;28;20034;-87
2021/05/02 10:06:12;;;;;;;2.15;0.98;;;17.90;96.60;;;;;;4995495;28;20033;-87
2021/05/02 10:08:42;;;;;;;3.90;1.58;;;17.80;96.80;;;;;;4998720;28;20030;-87
2021/05/02 10:11:12;;;;;;;5.00;1.25;;;17.80;96.60;;;;;;4995590;28;20049;-90
2021/05/02 10:13:43;;;;;;;6.35;1.52;;;17.80;96.60;;;;;;4999246;28;20019;-89
2021/05/02 10:16:12;;;;;;;3.95;1.15;;;17.70;96.80;;;;;;4995674;28;20429;-86
2021/05/02 10:18:40;;;;;;;4.95;1.83;;;17.70;96.80;;;;;;4998085;28;20089;-86
2021/05/02 10:21:09;;;;;;;5.95;1.85;;;17.70;96.90;;;;;;4993497;28;20041;-85
2021/05/02 10:23:41;;;;;;;5.75;1.48;;;17.60;96.90;;;;;;4998198;28;20033;-87
2021/05/02 10:26:12;;;;;;;7.80;2.85;;;17.60;97.30;;;;;;4998526;28;20030;-86
2021/05/02 10:28:40;;;;;;;6.00;1.80;;;17.60;97.20;;;;;;4997450;28;20026;-84
2021/05/02 10:31:10;;;;;;;4.63;2.63;;;17.50;97.40;;;;;;4985444;28;20062;-83
2021/05/02 10:33:42;;;;;;;6.10;2.33;;;17.50;97.50;;;;;;4980006;28;20113;-87
2021/05/02 10:36:22;;;;;;;9.23;2.63;;;17.50;97.40;;;;;;4992854;28;20619;-83
2021/05/02 10:38:57;;;;;;;6.32;2.63;;;17.40;97.40;;;;;;4981977;28;20034;-83
2021/05/02 10:41:32;;;;;;;7.18;1.83;;;17.30;97.20;;;;;;4977346;28;20546;-85
2021/05/02 10:44:05;;;;;;;4.90;1.50;;;17.30;97.10;;;;;;4987629;28;20077;-83
2021/05/02 10:46:46;;;;;;;3.38;1.77;;;17.20;97.00;;;;;;5000819;28;20049;-85
2021/05/02 10:49:20;;;;;;;4.53;1.38;;;17.20;97.20;;;;;;4997879;28;20101;-84
2021/05/02 10:51:51;;;;;;;5.72;1.63;;;17.10;97.10;;;;;;4989899;28;20488;-86
2021/05/02 10:54:21;;;;;;;4.20;1.23;;;17.00;97.00;;;;;;4996484;28;20076;-83
2021/05/02 10:56:51;;;;;;;3.67;1.40;;;17.00;97.10;;;;;;4998338;28;20045;-85
2021/05/02 10:59:40;;;;;;;4.00;1.50;;;16.90;97.10;;;;;;4995813;28;20025;-84
2021/05/02 11:02:37;;;;;;;4.07;1.70;;;16.90;97.30;;;;;;4994150;28;20038;-86
2021/05/02 11:05:07;;;;;;;7.07;2.22;;;16.80;97.20;;;;;;4991884;28;20035;-82
2021/05/02 11:07:42;;;;;;;6.15;2.00;;;16.80;97.30;;;;;;4992863;28;20152;-85
2021/05/02 11:10:19;;;;;;;4.57;1.73;;;16.80;97.40;;;;;;4991559;28;20037;-88
2021/05/02 11:12:46;;;;;;;3.70;1.77;;;16.80;97.60;;;;;;4989144;28;20125;-84
2021/05/02 11:15:37;;;;;;;4.35;2.30;;;16.70;97.70;;;;;;4987297;28;20049;-84
2021/05/02 11:18:20;;;;;;;3.30;2.03;;;16.60;97.70;;;;;;4990668;28;20041;-87
2021/05/02 11:20:49;;;;;;;3.53;2.05;;;16.60;98.00;;;;;;4984859;28;20037;-82
2021/05/02 11:23:39;;;;;;;6.97;2.22;;;16.60;98.20;;;;;;4990213;28;20038;-87
2021/05/02 11:26:06;;;;;;;6.82;1.83;;;16.50;98.10;;;;;;4989331;28;20022;-85
2021/05/02 11:28:42;;;;;;;6.88;1.92;;;16.50;97.90;;;;;;4991261;28;20026;-87
2021/05/02 11:31:09;;;;;;;3.63;1.90;;;16.50;97.70;;;;;;4988246;28;20053;-84
2021/05/02 11:33:37;;;;;;;2.95;1.80;;;16.40;97.70;;;;;;4991421;28;20046;-86
2021/05/02 11:36:05;;;;;;;4.43;2.20;;;16.30;97.70;;;;;;4990923;28;20072;-87
2021/05/02 11:38:38;;;;;;;5.60;2.05;;;16.30;97.80;;;;;;4991651;28;20075;-85
2021/05/02 11:41:08;;;;;;;4.15;1.83;;;16.20;97.90;;;;;;4987380;28;20050;-86
2021/05/02 11:43:38;;;;;;;4.13;1.70;;;16.20;97.80;;;;;;4986724;28;20037;-86
2021/05/02 11:46:16;;;;;;;3.55;2.13;;;16.20;97.80;;;;;;4989836;28;20493;-85
2021/05/02 11:48:45;;;;;;;4.20;2.00;;;16.10;97.80;;;;;;4988686;28;20101;-84
2021/05/02 11:51:28;;;;;;;4.30;2.47;;;16.10;98.00;;;;;;4993741;28;20527;-86
2021/05/02 11:53:58;;;;;;;6.63;2.35;;;16.10;98.20;;;;;;4992807;28;20038;-85
2021/05/02 11:56:34;;;;;;;5.43;2.13;;;16.10;98.20;;;;;;4989816;28;20031;-86
2021/05/02 11:59:09;;;;;;;6.55;2.65;;;16.10;98.10;;;;;;4991009;28;20528;-84
2021/05/02 12:01:40;;;;;;;6.55;3.38;;;16.00;98.10;;;;;;4991495;28;20118;-84
2021/05/02 12:04:19;;;;;;;6.55;2.22;;;16.00;98.20;;;;;;4994108;28;20101;-89
2021/05/02 12:06:48;;;;;;;5.75;2.22;;;16.10;98.10;;;;;;4993706;28;20030;-87
2021/05/02 12:09:25;;;;;;;5.20;2.00;;;16.10;98.00;;;;;;4990102;28;20026;-82
2021/05/02 12:12:00;;;;;;;6.03;2.85;;;16.10;98.10;;;;;;4990452;28;20046;-83
2021/05/02 12:14:33;;;;;;;6.70;2.30;;;16.00;97.90;;;;;;4992495;28;20021;-83
2021/05/02 12:17:01;;;;;;;5.78;2.28;;;16.00;98.30;;;;;;4988169;28;20023;-78
2021/05/02 12:19:33;;;;;;;5.93;3.15;;;16.00;98.00;;;;;;4985405;28;20379;-81
2021/05/02 12:22:01;;;;;;;4.65;2.45;;;16.00;98.30;;;;;;4988836;28;20116;-83
2021/05/02 12:24:33;;;;;;;5.38;3.10;;;16.00;98.50;;;;;;4991732;28;20097;-83
2021/05/02 12:27:03;;;;;;;7.45;3.63;;;16.00;98.60;;;;;;4990166;28;20031;-84
2021/05/02 12:29:33;;;;;;;8.00;2.60;;;16.00;99.10;;;;;;4993734;28;20022;-82
2021/05/02 12:32:12;;;;;;;5.43;2.25;;;16.00;99.10;;;;;;4991696;28;20049;-81
2021/05/02 12:34:49;;;;;;;5.20;2.90;;;16.10;99.50;;;;;;4991569;28;20042;-81
2021/05/02 12:37:23;;;;;;;5.75;2.83;;;16.10;99.70;;;;;;5005334;28;20033;-83
2021/05/02 12:39:55;;;;;;;6.82;2.75;;;16.20;99.80;;;;;;5002241;28;20030;-83
2021/05/02 12:42:36;;;;;;;7.00;2.92;;;16.20;99.80;;;;;;4991660;28;20022;-84
2021/05/02 12:45:11;;;;;;;8.00;3.67;;;16.20;99.60;;;;;;4986477;28;20030;-87
2021/05/02 12:47:49;;;;;;;9.07;3.60;;;16.10;99.50;;;;;;5003214;28;20389;-84
2021/05/02 12:50:18;;;;;;;7.28;4.00;;;16.10;99.40;;;;;;4989456;28;20113;-83
2021/05/02 12:52:48;;;;;;;9.30;5.30;;;16.00;99.20;;;;;;4989346;28;20030;-84
2021/05/02 12:55:28;;;;;;;10.60;5.72;;;15.90;99.40;;;;;;4989061;28;20050;-84
2021/05/02 12:57:59;;;;;;;7.93;4.47;;;15.80;99.60;;;;;;4989369;28;20061;-83
2021/05/02 13:00:39;;;;;;;14.70;5.03;;;15.90;99.60;;;;;;4986746;28;20052;-85
2021/05/02 13:03:30;;;;;;;8.50;4.88;;;15.80;99.10;;;;;;4993457;28;20028;-85